Memphis, Tennessee
Current Conditions -  °F | °C
As of 3:54 PM on Friday 24 Oct 2014 (Local Time) from KMEM Reporting Station
Few Clouds Few Clouds  
Wind Chill: 24°   Ceiling: Unl
Heat Index: 24°   Visibility: 10mi
Dew Point: 11°   Wind: 0mph
Humidity: 44%   Direction: NA
Pressure: 30.08"   Gusts: NA
Location:  35.15°N, 90.05°W
Report Text: KMEM 242054Z 00000KT 10SM FEW250 24/11 A3008 RMK AO2 SLP183 T02390111 56017 $
Loading
Personal Weather Stations






























Interactive Weather Map New forecast layout! Learn more

10-Day Weather Forecast

Advertisements
Track Severe Weather on mobile